Tiempo atmosférico en la estación meteorológica de Alforja, Tarragona (406 m.)



Fecha
DESCASC
Temp. máxima en grados centígrados (hora)
DESCASC
Temp. mínima en grados centígrados (hora)
DESCASC
Temp. media en grados centígrados
DESCASC
Racha de viento máxima en m/sg (hora)
DESCASC
Velocidad máxima media en intervalos de 10 minutos(hora)
DESCASC
Precipitaciones diarias en mm
DESCASC
Precipitaciones de 00:00 a 06:00 en mm
DESCASC
Precipitaciones de 06:00 a 12:00 en mm
DESCASC
Precipitaciones de 12:00 a 18:00 en mm
DESCASC
Precipitaciones de 18:00 a 24:00 en mm
DESCASC
28-02-2021 13.1 (16:30) 6.5 (04:20) 9.8 7.5 (16:30) 3.89 (16:40) 0.8 0 0.8 0 0
27-02-2021 16 (16:00) 5.2 (01:30) 10.6 11.11 (12:10) 7.22 (10:10) 0 0 0 0 0
26-02-2021 15.7 (15:30) 5.2 (23:20) 10.4 5.56 (11:00) 3.33 (11:00) 0 0 0 0 0
25-02-2021 13 (16:10) 7.8 (00:00) 10.4 3.61 (00:30) 2.22 (17:10) 0 0 0 0 0
24-02-2021 16.6 (15:10) 8.6 (00:00) 12.6 6.39 (14:20) 3.33 (16:00) 0 0 0 0 0
23-02-2021 17 (13:30) 6.3 (00:00) 11.7 5.56 (00:20) 3.61 (01:10) 0 0 0 0 0
22-02-2021 12.3 (02:50) 7 (00:00) 9.7 12.78 (04:10) 5.28 (02:50) 10.6 0.4 8.8 0.2 1.2
21-02-2021 12.7 (13:30) 4.7 (00:00) 8.7 13.89 (16:30) 6.94 (12:40) 0 0 0 0 0
20-02-2021 14 (14:30) 2.3 (00:00) 8.1 5.83 (14:30) 3.61 (14:30) 0 0 0 0 0
19-02-2021 15.4 (14:50) 3.9 (00:00) 9.6 8.61 (04:30) 5 (05:10) 0 0 0 0 0
18-02-2021 14.6 (15:40) 3.4 (00:00) 9 4.17 (13:50) 2.5 (13:40) 0 0 0 0 0
17-02-2021 16.2 (12:40) 5 (00:00) 10.6 5 (12:50) 3.06 (15:00) 0 0 0 0 0
16-02-2021 15.1 (14:40) 5.1 (00:00) 10.1 4.44 (14:50) 2.22 (15:40) 0.2 0.2 0 0 0
15-02-2021 8 (13:40) 5.4 (00:00) 6.7 3.06 (01:30) 1.39 (14:20) 1.6 0.4 0 0.2 1
14-02-2021 9.1 (05:10) 4.4 (00:00) 6.8 6.94 (05:20) 3.33 (05:20) 14.4 2 6.8 4.4 1.2
13-02-2021 15.8 (13:30) 4.7 (00:00) 10.3 14.72 (02:50) 8.61 (05:00) 0 0 0 0 0
12-02-2021 18.6 (11:50) 8.4 (00:00) 13.5 16.67 (21:30) 10 (21:50) 1.8 0 0 1.6 0.2
11-02-2021 17.8 (15:50) 7.7 (00:00) 12.7 14.72 (01:00) 8.89 (00:50) 0 0 0 0 0
10-02-2021 13 (15:30) 6.4 (00:00) 9.7 16.94 (13:10) 10 (13:10) 3.6 0.4 3.2 0 0
09-02-2021 12.4 (12:00) 6.9 (00:00) 9.6 14.44 (04:10) 8.33 (03:40) 2.8 0 0 0.6 2.2
08-02-2021 12.9 (16:00) 7 (00:00) 9.9 12.78 (01:30) 6.39 (01:20) 5.6 0 3 2.6 0
07-02-2021 12.1 (15:50) 4.4 (00:00) 8.3 17.5 (10:20) 10 (10:50) 0 0 0 0 0
06-02-2021 18.4 (14:20) 7.3 (00:00) 12.8 13.61 (23:30) 7.22 (22:30) 0.6 0 0 0 0.6
05-02-2021 14.8 (14:00) 7.8 (00:00) 11.3 6.11 (12:00) 3.61 (12:00) 0 0 0 0 0
04-02-2021 17.9 (11:40) 6.6 (00:00) 12.2 5.28 (13:30) 3.33 (12:10) 0 0 0 0 0
03-02-2021 18.2 (13:30) 9.4 (00:00) 13.8 10.83 (05:50) 5.56 (10:20) 0 0 0 0 0
02-02-2021 -- (--) -- (--) -- -- (--) -- (--) -- 0 -- -- 0
01-02-2021 17.3 (14:40) 10.8 (00:00) 14 25.56 (19:00) 12.5 (20:00) 0 0 0 0 0
31-01-2021 15.6 (17:00) 8.5 (00:00) 12.1 20 (09:40) 10 (07:10) 0 0 0 0 0

Gráficas

Temp. máximas Temp. mínimas Temp. medias Precipitaciones Rachas de viento máximas Velocidades máximas media en intervalos de 10 minutos

Datos horarios

Fecha y hora oficial Temperatura (ºC) Velocidad del viento (km/h) Dirección del viento Racha (km/h) Dirección de racha Precipitación (mm) Presión (hPa) Tendencia (hPa) Humedad (%)
2021-03-01 23:00:00 9.6 10 Este 21 Este 0 -- -- 80
2021-03-01 22:00:00 9.5 8 Este 18 Nordeste 0 -- -- 83
2021-03-01 21:00:00 9.8 10 Este 22 Este 0 -- -- 81
2021-03-01 20:00:00 9.8 9 Este 23 Este 0 -- -- 78
2021-03-01 19:00:00 10.2 7 Este 22 Este 0 -- -- 87
2021-03-01 18:00:00 10.7 8 Este 25 Este 0 -- -- 86
2021-03-01 17:00:00 11.9 12 Este 27 Este 0 -- -- 70
2021-03-01 16:00:00 12.9 12 Este 26 Este 0 -- -- 67
2021-03-01 15:00:00 12.9 13 Sudeste 26 Sudeste 0 -- -- 69
2021-03-01 14:00:00 11.9 10 Sudeste 24 Sudeste 0 -- -- 73
2021-03-01 13:00:00 12.4 11 Este 27 Este 0 -- -- 69
2021-03-01 12:00:00 11.2 11 Este 25 Este 0 -- -- 73
2021-03-01 11:00:00 10.3 12 Este 27 Este 0 -- -- 74
2021-03-01 10:00:00 9.5 8 Este 17 Este 0 -- -- 79
2021-03-01 09:00:00 9.5 8 Este 18 Este 0 -- -- 79
2021-03-01 08:00:00 8.9 7 Este 16 Este 0 -- -- 82
2021-03-01 07:00:00 9 8 Este 26 Este 0 -- -- 83
2021-03-01 06:00:00 9 9 Este 24 Sudeste 0 -- -- 87
2021-03-01 05:00:00 8.9 10 Este 19 Este 0 -- -- 86
2021-03-01 04:00:00 8.8 7 Este 18 Este 0 -- -- 88
2021-03-01 03:00:00 8.8 9 Este 21 Este 0 -- -- 87
2021-03-01 02:00:00 8.7 9 Este 26 Este 0 -- -- 87
2021-03-01 01:00:00 8.5 9 Este 27 Este 0 -- -- 87
2021-03-01 00:00:00 8.8 9 Este 22 Este 0 -- -- 88
2021-02-28 23:00:00 9.1 12 Este 26 Este 0 -- -- 85
2021-02-28 22:00:00 9 10 Este 25 Este 0 -- -- 90
2021-02-28 21:00:00 9 9 Este 22 Este 0 -- -- 90
2021-02-28 20:00:00 8.8 5 Este 17 Este 0 -- -- 92
2021-02-28 19:00:00 9.4 8 Este 18 Sudeste 0 -- -- 89
2021-02-28 18:00:00 10.6 11 Sudeste 24 Este 0 -- -- 78
2021-02-28 17:00:00 12.3 12 Sudeste 27 Sudeste 0 -- -- 75
2021-02-28 16:00:00 12.4 9 Sudeste 22 Sudeste 0 -- -- 75
2021-02-28 15:00:00 11.8 9 Sudeste 23 Sudeste 0 -- -- 76
2021-02-28 14:00:00 10.8 11 Este 23 Este 0 -- -- 84
2021-02-28 13:00:00 10.4 10 Sudeste 17 Sudeste 0 -- -- 88
2021-02-28 12:00:00 11.1 8 Sudeste 17 Este 0 -- -- 90
2021-02-28 11:00:00 9.9 4 Este 10 Este 0.6 -- -- 96
2021-02-28 10:00:00 9.5 5 Este 14 Este 0.2 -- -- 95
2021-02-28 09:00:00 8.7 3 Este 8 Este 0 -- -- 99
2021-02-28 08:00:00 7.8 2 Nordeste 4 Norte 0 -- -- 99
2021-02-28 07:00:00 7.8 3 Noroeste 4 Sudoeste 0 -- -- 99
2021-02-28 06:00:00 7.7 0 Calma 4 Sur 0 -- -- 98
2021-02-28 05:00:00 7.1 0 Calma 4 Norte 0 -- -- 98
2021-02-28 04:00:00 6.8 0 Calma 5 Sudoeste 0 -- -- 96
2021-02-28 03:00:00 8.9 2 Norte 8 Este 0 -- -- 96
2021-02-28 02:00:00 9.5 4 Este 7 Este 0 -- -- 94
2021-02-28 01:00:00 9.6 3 Este 8 Este 0 -- -- 93
2021-02-28 00:00:00 9.7 4 Este 10 Nordeste 0 -- -- 93
2021-02-27 23:00:00 9.7 3 Este 9 Este 0 -- -- 90
2021-02-27 22:00:00 10 3 Este 5 Nordeste 0 -- -- 90
2021-02-27 21:00:00 10 2 Este 8 Este 0 -- -- 89
2021-02-27 20:00:00 9.9 0 Calma 6 Norte 0 -- -- 90
2021-02-27 19:00:00 10.8 4 Este 15 Nordeste 0 -- -- 87
2021-02-27 18:00:00 14.1 4 Oeste 21 Oeste 0 -- -- 63
2021-02-27 17:00:00 15.3 13 Oeste 29 Sudoeste 0 -- -- 58
2021-02-27 16:00:00 16 15 Oeste 28 Oeste 0 -- -- 59
2021-02-27 15:00:00 15.3 17 Oeste 32 Oeste 0 -- -- 60
2021-02-27 14:00:00 -- -- -- -- -- -- -- -- --
2021-02-27 13:00:00 13.1 17 Oeste 40 Oeste 0 -- -- 71
2021-02-27 12:00:00 12 22 Oeste 38 Oeste 0 -- -- 75
2021-02-27 11:00:00 10.6 24 Oeste 39 Oeste 0 -- -- 81
2021-02-27 10:00:00 10.2 25 Oeste 39 Oeste 0 -- -- 85
2021-02-27 09:00:00 9.3 21 Oeste 33 Oeste 0 -- -- 91
2021-02-27 08:00:00 8.5 18 Oeste 36 Sudoeste 0 -- -- 97
2021-02-27 07:00:00 8.3 13 Oeste 35 Sudoeste 0 -- -- 98
2021-02-27 06:00:00 9 17 Sudoeste 26 Oeste 0 -- -- 100
2021-02-27 05:00:00 8.2 15 Sudoeste 19 Sudoeste 0 -- -- 100
2021-02-27 04:00:00 6.9 9 Oeste 13 Oeste 0 -- -- 100
2021-02-27 03:00:00 5.6 5 Oeste 10 Oeste 0 -- -- 100
2021-02-27 02:00:00 5.2 3 Oeste 5 Oeste 0 -- -- 99
2021-02-27 01:00:00 5.8 3 Oeste 13 Oeste 0 -- -- 99
2021-02-27 00:00:00 5.5 9 Oeste 12 Sudoeste 0 -- -- 99
2021-02-26 23:00:00 5.6 3 Nordeste 5 Noroeste 0 -- -- 99
2021-02-26 22:00:00 5.7 2 Norte 5 Noroeste 0 -- -- 98
2021-02-26 21:00:00 7.1 4 Noroeste 5 Oeste 0 -- -- 97
2021-02-26 20:00:00 8 0 Calma 3 Este 0 -- -- 95
2021-02-26 19:00:00 9.4 2 Nordeste 6 Nordeste 0 -- -- 93
2021-02-26 18:00:00 12.2 5 Este 11 Este 0 -- -- 84
2021-02-26 17:00:00 14.2 7 Este 15 Este 0 -- -- 77
2021-02-26 16:00:00 15.1 7 Sudeste 13 Este 0 -- -- 73
2021-02-26 15:00:00 14.3 6 Sur 13 Oeste 0 -- -- 72
2021-02-26 14:00:00 13.1 5 Sudoeste 11 Oeste 0 -- -- 76
2021-02-26 13:00:00 12.6 5 Sudoeste 15 Oeste 0 -- -- 78
2021-02-26 12:00:00 11.4 8 Oeste 17 Noroeste 0 -- -- 84
2021-02-26 11:00:00 10.6 12 Oeste 20 Oeste 0 -- -- 86
2021-02-26 10:00:00 10 3 Este 7 Norte 0 -- -- 90
2021-02-26 09:00:00 8.5 4 Norte 17 Oeste 0 -- -- 98
2021-02-26 08:00:00 7.8 3 Oeste 12 Oeste 0 -- -- 100
2021-02-26 07:00:00 6.7 6 Sudoeste 10 Sudoeste 0 -- -- 100
2021-02-26 06:00:00 6.9 5 Oeste 10 Oeste 0 -- -- 99
2021-02-26 05:00:00 6.6 5 Sudoeste 9 Sudoeste 0 -- -- 99
2021-02-26 04:00:00 7.5 3 Oeste 9 Oeste 0 -- -- 99
2021-02-26 03:00:00 7.7 6 Oeste 10 Oeste 0 -- -- 99
2021-02-26 02:00:00 6.8 3 Oeste 8 Oeste 0 -- -- 99
2021-02-26 01:00:00 5.9 3 Sudoeste 8 Oeste 0 -- -- 97
2021-02-26 00:00:00 7.8 4 Noroeste 9 Noroeste 0 -- -- 95
2021-02-25 23:00:00 9.7 3 Oeste 6 Oeste 0 -- -- 94
2021-02-25 22:00:00 9.5 4 Noroeste 5 Noroeste 0 -- -- 97
2021-02-25 21:00:00 10.1 3 Este 8 Nordeste 0 -- -- 96
2021-02-25 20:00:00 10.8 4 Este 9 Este 0 -- -- 90
2021-02-25 19:00:00 11.3 3 Sudeste 9 Este 0 -- -- 88
2021-02-25 18:00:00 12.1 5 Sur 11 Sur 0 -- -- 83
2021-02-25 17:00:00 12.7 5 Sudeste 10 Sudeste 0 -- -- 80
2021-02-25 16:00:00 12.9 4 Este 10 Sudeste 0 -- -- 79
2021-02-25 15:00:00 12.5 5 Este 8 Este 0 -- -- 79
2021-02-25 14:00:00 11.4 4 Sudeste 10 Sudeste 0 -- -- 87
2021-02-25 13:00:00 11.6 5 Sudeste 10 Este 0 -- -- 87
2021-02-25 12:00:00 11.6 4 Este 7 Sudeste 0 -- -- 86
2021-02-25 11:00:00 10.6 4 Nordeste 8 Nordeste 0 -- -- 92
2021-02-25 10:00:00 10 3 Este 8 Sudeste 0 -- -- 94
2021-02-25 09:00:00 9.6 3 Nordeste 5 Nordeste 0 -- -- 97
2021-02-25 08:00:00 9.2 0 Calma 5 Nordeste 0 -- -- 97
2021-02-25 07:00:00 9.1 0 Calma 7 Nordeste 0 -- -- 97
2021-02-25 06:00:00 9.2 3 Nordeste 12 Este 0 -- -- 97
2021-02-25 05:00:00 9.2 4 Sudeste 8 Sudeste 0 -- -- 96
2021-02-25 04:00:00 9.3 4 Este 9 Sudeste 0 -- -- 95
2021-02-25 03:00:00 9.3 3 Este 6 Este 0 -- -- 94
2021-02-25 02:00:00 9.3 4 Este 10 Sudeste 0 -- -- 93
2021-02-25 01:00:00 9.6 6 Nordeste 13 Nordeste 0 -- -- 90
2021-02-25 00:00:00 9.5 5 Este 12 Nordeste 0 -- -- 94
2021-02-24 23:00:00 9.1 4 Este 12 Este 0 -- -- 94
2021-02-24 22:00:00 9.1 4 Sudeste 14 Nordeste 0 -- -- 93
2021-02-24 21:00:00 8.6 4 Este 9 Este 0 -- -- 93
2021-02-24 20:00:00 9.3 4 Este 9 Este 0 -- -- 93
2021-02-24 19:00:00 10.7 6 Este 18 Sudeste 0 -- -- 90
2021-02-24 18:00:00 12.2 8 Sudeste 19 Este 0 -- -- 86
2021-02-24 17:00:00 15.2 8 Sudeste 20 Nordeste 0 -- -- 75
2021-02-24 16:00:00 16.1 12 Sudeste 21 Sudeste 0 -- -- 71
2021-02-24 15:00:00 16.3 10 Sudeste 23 Sudeste 0 -- -- 63
2021-02-24 14:00:00 14.3 7 Este 17 Este 0 -- -- 72
2021-02-24 13:00:00 13 8 Este 20 Este 0 -- -- 79
2021-02-24 12:00:00 11.8 7 Este 14 Sudeste 0 -- -- 83
2021-02-24 11:00:00 11.1 6 Sudeste 13 Sudeste 0 -- -- 89
2021-02-24 10:00:00 10.9 5 Sudeste 10 Sudeste 0 -- -- 92
2021-02-24 09:00:00 10.5 4 Este 11 Nordeste 0 -- -- 93
2021-02-24 08:00:00 10.3 4 Este 7 Este 0 -- -- 98
2021-02-24 07:00:00 10.4 0 Calma 5 Este 0 -- -- 98
2021-02-24 06:00:00 10.5 0 Calma 6 Este 0 -- -- 98
2021-02-24 05:00:00 10.7 4 Este 10 Este 0 -- -- 97
2021-02-24 04:00:00 10.8 3 Este 8 Este 0 -- -- 96
2021-02-24 03:00:00 10.9 3 Este 6 Este 0 -- -- 97
2021-02-24 02:00:00 11 0 Calma 5 Este 0 -- -- 97
2021-02-24 01:00:00 11.1 4 Este 8 Este 0 -- -- 97
2021-02-24 00:00:00 11.1 4 Este 12 Nordeste 0 -- -- 96
2021-02-23 23:00:00 10.9 3 Este 10 Este 0 -- -- 95
2021-02-23 22:00:00 10.7 0 Calma 5 Nordeste 0 -- -- 94
2021-02-23 21:00:00 11.2 3 Este 11 Este 0 -- -- 92
2021-02-23 20:00:00 11.8 4 Este 10 Nordeste 0 -- -- 89
2021-02-23 19:00:00 12.5 4 Nordeste 9 Nordeste 0 -- -- 89
2021-02-23 18:00:00 13.9 3 Este 10 Sudeste 0 -- -- 83
2021-02-23 17:00:00 15.8 5 Sudeste 10 Sudeste 0 -- -- 75
2021-02-23 16:00:00 16.2 6 Este 16 Sudeste 0 -- -- 74
2021-02-23 15:00:00 16.4 8 Este 17 Este 0 -- -- 71
2021-02-23 14:00:00 16.6 6 Sudeste 17 Sudeste 0 -- -- 65
2021-02-23 13:00:00 16.4 5 Sudeste 17 Sudeste 0 -- -- 69
2021-02-23 12:00:00 14.2 7 Sudeste 13 Sudeste 0 -- -- 78
2021-02-23 11:00:00 12.3 6 Sudeste 12 Sudeste 0 -- -- 90
2021-02-23 10:00:00 10.5 3 Sudoeste 13 Sudoeste 0 -- -- 93
2021-02-23 09:00:00 8.6 6 Sudoeste 11 Oeste 0 -- -- 95
2021-02-23 08:00:00 8.6 2 Sudoeste 9 Oeste 0 -- -- 97
2021-02-23 07:00:00 8.3 4 Oeste 7 Oeste 0 -- -- 98
2021-02-23 06:00:00 7.9 0 Calma 6 Sudoeste 0 -- -- 97
2021-02-23 05:00:00 7.4 3 Oeste 12 Sudoeste 0 -- -- 96
2021-02-23 04:00:00 6.8 9 Sudoeste 16 Sudoeste 0 -- -- 95
2021-02-23 03:00:00 6.4 13 Sudoeste 17 Oeste 0 -- -- 95
2021-02-23 02:00:00 6.3 10 Oeste 20 Sudoeste 0 -- -- 94
2021-02-23 01:00:00 6.8 12 Sudoeste 20 Noroeste 0 -- -- 93
2021-02-23 00:00:00 7.2 11 Sudoeste 24 Oeste 0 -- -- 93
2021-02-22 23:00:00 7.6 12 Oeste 23 Oeste 0 -- -- 89
2021-02-22 22:00:00 7.6 13 Oeste 23 Sudoeste 0 -- -- 93
2021-02-22 21:00:00 7.6 13 Oeste 23 Sudoeste 0.2 -- -- 94
2021-02-22 20:00:00 8.2 10 Oeste 24 Sudoeste 0.8 -- -- 92
2021-02-22 19:00:00 8.8 15 Sudoeste 25 Sudoeste 0.2 -- -- 87
2021-02-22 18:00:00 10.8 9 Oeste 18 Oeste 0 -- -- 80
2021-02-22 17:00:00 12 12 Sudoeste 21 Oeste 0 -- -- 75
2021-02-22 16:00:00 10.7 13 Oeste 26 Oeste 0 -- -- 82
2021-02-22 15:00:00 10.1 13 Sudoeste 23 Sudoeste 0 -- -- 85
2021-02-22 14:00:00 11.3 10 Oeste 19 Oeste 0 -- -- 84
2021-02-22 13:00:00 11.4 3 Sudoeste 12 Nordeste 0.2 -- -- 88
2021-02-22 12:00:00 10.1 5 Nordeste 14 Nordeste 0.4 -- -- 95
2021-02-22 11:00:00 9.5 4 Nordeste 23 Sur 2.2 -- -- 99
2021-02-22 10:00:00 9.7 14 Sudeste 34 Nordeste 0.4 -- -- 99
2021-02-22 09:00:00 10.5 13 Este 35 Este 2.2 -- -- 99
2021-02-22 08:00:00 10.2 11 Este 24 Este 2.8 -- -- 98
2021-02-22 07:00:00 10.5 11 Este 30 Este 0.8 -- -- 97
2021-02-22 06:00:00 10.9 12 Este 32 Nordeste 0 -- -- 96
2021-02-22 05:00:00 11.7 15 Este 46 Este 0 -- -- 94
2021-02-22 04:00:00 11.9 16 Este 40 Este 0 -- -- 91
2021-02-22 03:00:00 12.1 18 Este 40 Nordeste 0 -- -- 88
2021-02-22 02:00:00 11.5 14 Este 36 Nordeste 0 -- -- 92
2021-02-22 01:00:00 11.3 12 Este 29 Este 0.4 -- -- 92
2021-02-22 00:00:00 12 10 Sudeste 27 Este 0 -- -- 85
2021-02-21 23:00:00 11.6 8 Este 30 Este 0 -- -- 86
2021-02-21 22:00:00 11.8 10 Este 30 Nordeste 0 -- -- 83
2021-02-21 21:00:00 11.8 13 Este 36 Este 0 -- -- 82
2021-02-21 20:00:00 11.6 10 Este 28 Este 0 -- -- 83
2021-02-21 19:00:00 11.7 15 Este 36 Este 0 -- -- 81
2021-02-21 18:00:00 11.7 16 Este 42 Este 0 -- -- 81
2021-02-21 17:00:00 11.8 19 Este 50 Este 0 -- -- 80
2021-02-21 16:00:00 12.2 18 Este 44 Nordeste 0 -- -- 79
2021-02-21 15:00:00 12.7 18 Este 46 Este 0 -- -- 77
2021-02-21 14:00:00 12.5 22 Este 46 Este 0 -- -- 78
2021-02-21 13:00:00 12.3 22 Este 48 Este 0 -- -- 78
2021-02-21 12:00:00 11.3 13 Este 37 Este 0 -- -- 84
2021-02-21 11:00:00 10.9 18 Este 40 Este 0 -- -- 83
2021-02-21 10:00:00 10.8 15 Este 30 Este 0 -- -- 80
2021-02-21 09:00:00 9.4 11 Sudeste 24 Sudeste 0 -- -- 86
2021-02-21 08:00:00 8.2 9 Sudeste 24 Este 0 -- -- 90
2021-02-21 07:00:00 7 5 Nordeste 17 Nordeste 0 -- -- 95
2021-02-21 06:00:00 6.8 5 Nordeste 15 Este 0 -- -- 93
2021-02-21 05:00:00 6.6 4 Nordeste 11 Norte 0 -- -- 93
2021-02-21 04:00:00 6.4 5 Nordeste 13 Norte 0 -- -- 94
2021-02-21 03:00:00 6.1 4 Nordeste 13 Nordeste 0 -- -- 96
2021-02-21 02:00:00 5.7 4 Nordeste 8 Nordeste 0 -- -- 100
2021-02-21 01:00:00 4.7 2 Nordeste 9 Nordeste 0 -- -- 99
2021-02-21 00:00:00 5.4 4 Nordeste 7 Nordeste 0 -- -- 100
2021-02-20 23:00:00 4.8 2 Norte 7 Nordeste 0 -- -- 97
2021-02-20 22:00:00 5.4 4 Norte 9 Norte 0 -- -- 97
2021-02-20 21:00:00 6 3 Nordeste 8 Este 0 -- -- 96
2021-02-20 20:00:00 7.5 4 Este 9 Este 0 -- -- 93
2021-02-20 19:00:00 8.5 5 Este 12 Este 0 -- -- 90
2021-02-20 18:00:00 9.9 6 Este 17 Este 0 -- -- 85
2021-02-20 17:00:00 11.2 8 Sudeste 17 Sudeste 0 -- -- 81
2021-02-20 16:00:00 12.9 10 Sudeste 18 Este 0 -- -- 73
2021-02-20 15:00:00 13.4 10 Sudeste 21 Sudeste 0 -- -- 72
2021-02-20 14:00:00 12.8 8 Sudeste 18 Sudeste 0 -- -- 74
2021-02-20 13:00:00 13 9 Sudeste 20 Este 0 -- -- 75
2021-02-20 12:00:00 12.1 6 Este 16 Este 0 -- -- 77
2021-02-20 11:00:00 10.5 5 Este 13 Este 0 -- -- 86
2021-02-20 10:00:00 9.3 5 Este 10 Este 0 -- -- 93
2021-02-20 09:00:00 8 0 Calma 8 Este 0 -- -- 99
2021-02-20 08:00:00 7.3 3 Sudeste 5 Norte 0 -- -- 99
2021-02-20 07:00:00 7 0 Calma 6 Oeste 0 -- -- 100
2021-02-20 06:00:00 6.6 4 Oeste 9 Oeste 0 -- -- 100
2021-02-20 05:00:00 5.7 2 Oeste 9 Oeste 0 -- -- 99
2021-02-20 04:00:00 5.3 6 Oeste 12 Sudoeste 0 -- -- 100
2021-02-20 03:00:00 4.8 7 Oeste 10 Sudoeste 0 -- -- 99
2021-02-20 02:00:00 3.6 5 Oeste 9 Oeste 0 -- -- 100
2021-02-20 01:00:00 2.8 2 Norte 10 Sudoeste 0 -- -- 98
2021-02-20 00:00:00 5.1 4 Sudoeste 10 Sudoeste 0 -- -- 98
2021-02-19 23:00:00 5.4 5 Sudoeste 9 Sudoeste 0 -- -- 97
2021-02-19 22:00:00 4.9 4 Nordeste 9 Sudeste 0 -- -- 94
2021-02-19 21:00:00 5.6 0 Calma 13 Oeste 0 -- -- 90
2021-02-19 20:00:00 6.5 5 Oeste 10 Sudoeste 0 -- -- 94
2021-02-19 19:00:00 8.3 2 Noroeste 5 Norte 0 -- -- 90
2021-02-19 18:00:00 12.4 0 Calma 8 Nordeste 0 -- -- 83
2021-02-19 17:00:00 13.5 4 Nordeste 14 Este 0 -- -- 80
2021-02-19 16:00:00 14.9 8 Este 15 Este 0 -- -- 74
2021-02-19 15:00:00 15.2 8 Este 14 Este 0 -- -- 73
2021-02-19 14:00:00 14.4 10 Este 17 Este 0 -- -- 74
2021-02-19 13:00:00 13.8 6 Sudeste 14 Este 0 -- -- 75
2021-02-19 12:00:00 10.9 5 Sudeste 9 Sudeste 0 -- -- 85
2021-02-19 11:00:00 8.1 3 Nordeste 9 Nordeste 0 -- -- 94
2021-02-19 10:00:00 6.9 3 Sudeste 6 Este 0 -- -- 98
2021-02-19 09:00:00 6 0 Calma 7 Sudoeste 0 -- -- 98
2021-02-19 08:00:00 6.3 4 Oeste 7 Sudoeste 0 -- -- 97
2021-02-19 07:00:00 6.7 0 Calma 6 Este 0 -- -- 96
2021-02-19 06:00:00 8.7 5 Este 30 Oeste 0 -- -- 84
2021-02-19 05:00:00 14.1 14 Noroeste 31 Oeste 0 -- -- 44
2021-02-19 04:00:00 8.3 12 Noroeste 22 Oeste 0 -- -- 98
2021-02-19 03:00:00 5.3 6 Sudoeste 10 Este 0 -- -- 100
2021-02-19 02:00:00 3.9 0 Calma 9 Sudoeste 0 -- -- 99
2021-02-19 01:00:00 4.4 2 Norte 9 Oeste 0 -- -- 98
2021-02-19 00:00:00 4.5 2 Norte 5 Noroeste 0 -- -- 98
2021-02-18 23:00:00 6.1 3 Nordeste 9 Sudoeste 0 -- -- 96
2021-02-18 22:00:00 8.3 4 Oeste 8 Sudoeste 0 -- -- 95
2021-02-18 21:00:00 8.9 0 Calma 8 Sur 0 -- -- 94
2021-02-18 20:00:00 9.4 3 Este 7 Este 0 -- -- 93
2021-02-18 19:00:00 9.6 3 Este 8 Este 0 -- -- 91
2021-02-18 18:00:00 10.4 3 Nordeste 14 Este 0 -- -- 89
2021-02-18 17:00:00 13 6 Este 13 Sudeste 0 -- -- 78
2021-02-18 16:00:00 14.5 8 Sudeste 15 Sudeste 0 -- -- 72
2021-02-18 15:00:00 14.4 6 Sudeste 15 Sur 0 -- -- 72
2021-02-18 14:00:00 13.7 5 Sudeste 15 Este 0 -- -- 73
2021-02-18 13:00:00 13 6 Sudeste 13 Sudeste 0 -- -- 78
2021-02-18 12:00:00 10.5 4 Sudeste 9 Sudeste 0 -- -- 96
2021-02-18 11:00:00 8.1 3 Nordeste 9 Norte 0 -- -- 100
2021-02-18 10:00:00 7 0 Calma 8 Sudoeste 0 -- -- 100
2021-02-18 09:00:00 5.9 5 Sudoeste 10 Oeste 0 -- -- 100
2021-02-18 08:00:00 4.3 4 Sudoeste 12 Sudoeste 0 -- -- 100
2021-02-18 07:00:00 3.4 5 Sudoeste 9 Sudoeste 0 -- -- 99
2021-02-18 06:00:00 5 5 Oeste 10 Sudoeste 0 -- -- 100
2021-02-18 05:00:00 5.6 3 Sudoeste 12 Oeste 0 -- -- 100
2021-02-18 04:00:00 4.4 9 Sudoeste 12 Oeste 0 -- -- 100
2021-02-18 03:00:00 4.3 3 Noroeste 6 Sudoeste 0 -- -- 99
2021-02-18 02:00:00 4.8 3 Sudoeste 8 Oeste 0 -- -- 100
2021-02-18 01:00:00 4.1 3 Oeste 8 Este 0 -- -- 98
2021-02-18 00:00:00 5.5 3 Oeste 6 Nordeste 0 -- -- 99
2021-02-17 23:00:00 5.4 3 Noroeste 8 Sur 0 -- -- 98
2021-02-17 22:00:00 6 2 Noroeste 4 Norte 0 -- -- 98
2021-02-17 21:00:00 7.5 4 Nordeste 8 Este 0 -- -- 98
2021-02-17 20:00:00 7.9 0 Calma 8 Oeste 0 -- -- 95
2021-02-17 19:00:00 9.3 5 Oeste 8 Oeste 0 -- -- 93
2021-02-17 18:00:00 11.3 3 Este 10 Este 0 -- -- 90
2021-02-17 17:00:00 14.3 4 Este 11 Sudeste 0 -- -- 80
2021-02-17 16:00:00 14.3 6 Este 15 Este 0 -- -- 81
2021-02-17 15:00:00 15 11 Este 17 Este 0 -- -- 79
2021-02-17 14:00:00 14.8 5 Este 14 Este 0 -- -- 79
2021-02-17 13:00:00 15.9 9 Este 18 Este 0 -- -- 73
2021-02-17 12:00:00 15.6 8 Este 13 Este 0 -- -- 67
2021-02-17 11:00:00 13.6 4 Sudeste 8 Sudeste 0 -- -- 80
2021-02-17 10:00:00 10.8 5 Sudeste 9 Nordeste 0 -- -- 97
2021-02-17 09:00:00 9.6 2 Oeste 10 Oeste 0 -- -- 100
2021-02-17 08:00:00 7 5 Oeste 9 Oeste 0 -- -- 100
2021-02-17 07:00:00 6.6 5 Oeste 13 Oeste 0 -- -- 100
2021-02-17 06:00:00 6.3 3 Nordeste 5 Oeste 0 -- -- 100
2021-02-17 05:00:00 6.4 3 Norte 4 Nordeste 0 -- -- 100
2021-02-17 04:00:00 5.9 3 Oeste 4 Noroeste 0 -- -- 100
2021-02-17 03:00:00 6 0 Calma 6 Nordeste 0 -- -- 99
2021-02-17 02:00:00 6.5 3 Norte 6 Nordeste 0 -- -- 100
2021-02-17 01:00:00 5.9 2 Norte 6 Oeste 0 -- -- 99
2021-02-17 00:00:00 5.5 3 Oeste 6 Oeste 0 -- -- 99
2021-02-16 23:00:00 5.1 2 Noroeste 8 Oeste 0 -- -- 97
2021-02-16 22:00:00 5.5 6 Oeste 9 Oeste 0 -- -- 97
2021-02-16 21:00:00 7.2 4 Noroeste 7 Sur 0 -- -- 96
2021-02-16 20:00:00 7.9 2 Oeste 7 Oeste 0 -- -- 95
2021-02-16 19:00:00 8.2 0 Calma 6 Norte 0 -- -- 93
2021-02-16 18:00:00 10.8 3 Nordeste 11 Este 0 -- -- 85
2021-02-16 17:00:00 13.2 6 Este 11 Este 0 -- -- 78
2021-02-16 16:00:00 14 5 Sudeste 13 Este 0 -- -- 74
2021-02-16 15:00:00 14.8 6 Sur 16 Sudeste 0 -- -- 72
2021-02-16 14:00:00 14.4 6 Sur 12 Sudeste 0 -- -- 74
2021-02-16 13:00:00 13.9 7 Este 14 Nordeste 0 -- -- 72
2021-02-16 12:00:00 12.4 6 Sudeste 10 Sudeste 0 -- -- 78
2021-02-16 11:00:00 11.2 4 Este 13 Sudeste 0 -- -- 82
2021-02-16 10:00:00 10.5 3 Sur 10 Oeste 0 -- -- 90
2021-02-16 09:00:00 7.2 7 Sudoeste 10 Sudoeste 0 -- -- 100
2021-02-16 08:00:00 6.1 7 Oeste 10 Oeste 0 -- -- 99
2021-02-16 07:00:00 7.7 2 Oeste 5 Noroeste 0 -- -- 100
2021-02-16 06:00:00 7.8 2 Noroeste 5 Norte 0 -- -- 100
2021-02-16 05:00:00 7.8 2 Sudoeste 6 Sur 0 -- -- 100
2021-02-16 04:00:00 7.8 0 Calma 6 Sur 0 -- -- 100
2021-02-16 03:00:00 7.9 0 Calma 5 Oeste 0.2 -- -- 99
2021-02-16 02:00:00 8 2 Sudoeste 7 Nordeste 0 -- -- 99
2021-02-16 01:00:00 8 3 Nordeste 6 Nordeste 0 -- -- 99
2021-02-16 00:00:00 7.9 4 Nordeste 11 Este 0.2 -- -- 99
2021-02-15 23:00:00 7.5 2 Sur 4 Sur 0 -- -- 99
2021-02-15 22:00:00 7.4 0 Calma 5 Oeste 0.4 -- -- 99
2021-02-15 21:00:00 7.2 2 Oeste 4 Noroeste 0.2 -- -- 99
2021-02-15 20:00:00 7 0 Calma 6 Este 0.2 -- -- 98
2021-02-15 19:00:00 7.1 3 Sudeste 9 Norte 0 -- -- 98
2021-02-15 18:00:00 7.3 4 Nordeste 9 Nordeste 0 -- -- 96
2021-02-15 17:00:00 7.4 5 Este 9 Sudeste 0 -- -- 97
2021-02-15 16:00:00 7.9 2 Nordeste 9 Este 0.2 -- -- 95
2021-02-15 15:00:00 7.9 4 Este 10 Este 0 -- -- 97
2021-02-15 14:00:00 7.9 4 Este 8 Este 0 -- -- 97
2021-02-15 13:00:00 7.7 5 Este 8 Este 0 -- -- 97
2021-02-15 12:00:00 7.3 4 Este 8 Este 0 -- -- 99
2021-02-15 11:00:00 6.9 3 Sudeste 8 Nordeste 0 -- -- 99
2021-02-15 10:00:00 6.3 4 Este 6 Este 0 -- -- 99
2021-02-15 09:00:00 5.9 0 Calma 4 Sudeste 0 -- -- 100
2021-02-15 08:00:00 5.7 0 Calma 2 Sudeste 0 -- -- 99
2021-02-15 07:00:00 5.6 0 Calma 4 Sudeste 0 -- -- 99
2021-02-15 06:00:00 5.6 2 Este 4 Este 0.2 -- -- 99
2021-02-15 05:00:00 5.6 0 Calma 5 Este 0 -- -- 99
2021-02-15 04:00:00 5.6 0 Calma 4 Este 0 -- -- 99
2021-02-15 03:00:00 5.5 0 Calma 6 Sudeste 0 -- -- 99
2021-02-15 02:00:00 5.5 3 Sudeste 11 Nordeste 0 -- -- 99
2021-02-15 01:00:00 5.5 3 Este 8 Nordeste 0.2 -- -- 99
2021-02-15 00:00:00 5.4 3 Este 6 Este 0 -- -- 99
2021-02-14 23:00:00 5.4 3 Este 7 Nordeste 0 -- -- 99
2021-02-14 22:00:00 5.3 0 Calma 8 Este 0 -- -- 99
2021-02-14 21:00:00 5.2 4 Este 14 Nordeste 0.2 -- -- 99
2021-02-14 20:00:00 5.3 4 Este 13 Este 0.4 -- -- 99
2021-02-14 19:00:00 5.4 6 Este 16 Este 0.6 -- -- 99
2021-02-14 18:00:00 5.9 9 Este 21 Este 0.6 -- -- 98
2021-02-14 17:00:00 6.3 6 Este 16 Este 0.6 -- -- 98
2021-02-14 16:00:00 6.8 9 Este 18 Este 0.4 -- -- 98
2021-02-14 15:00:00 7.1 9 Este 19 Este 0.8 -- -- 98
2021-02-14 14:00:00 7.5 7 Este 18 Este 1.2 -- -- 98
2021-02-14 13:00:00 7.4 9 Este 20 Este 0.8 -- -- 98
2021-02-14 12:00:00 7.4 6 Este 15 Este 0.6 -- -- 99
2021-02-14 11:00:00 7.2 8 Este 15 Este 0.4 -- -- 98
2021-02-14 10:00:00 7 4 Este 19 Este 0.6 -- -- 99
2021-02-14 09:00:00 7.1 8 Este 14 Este 0.4 -- -- 99
2021-02-14 08:00:00 7.2 6 Este 15 Este 1.4 -- -- 99
2021-02-14 07:00:00 7.5 6 Este 17 Este 3.4 -- -- 98
2021-02-14 06:00:00 8.2 9 Este 25 Sudeste 2 -- -- 98
2021-02-14 05:00:00 9 6 Este 13 Sudeste 0 -- -- 98
2021-02-14 04:00:00 8.3 0 Calma 6 Noroeste 0 -- -- 97
2021-02-14 03:00:00 7.5 3 Noroeste 4 Oeste 0 -- -- 97
2021-02-14 02:00:00 7.1 2 Norte 7 Sudoeste 0 -- -- 98
2021-02-14 01:00:00 5.2 3 Noroeste 8 Noroeste 0 -- -- 97
2021-02-14 00:00:00 4.7 2 Noroeste 12 Oeste 0 -- -- 94
2021-02-13 23:00:00 5.6 8 Oeste 13 Oeste 0 -- -- 93
2021-02-13 22:00:00 6.6 2 Sur 12 Oeste 0 -- -- 82
2021-02-13 21:00:00 8.3 5 Noroeste 7 Sur 0 -- -- 78
2021-02-13 20:00:00 11 8 Oeste 25 Oeste 0 -- -- 65
2021-02-13 19:00:00 11.8 12 Oeste 23 Oeste 0 -- -- 65
2021-02-13 18:00:00 12.6 10 Oeste 28 Oeste 0 -- -- 65
2021-02-13 17:00:00 13.2 9 Oeste 29 Oeste 0 -- -- 63
2021-02-13 16:00:00 14.1 13 Oeste 31 Oeste 0 -- -- 61
2021-02-13 15:00:00 15.2 20 Oeste 36 Sudoeste 0 -- -- 57
2021-02-13 14:00:00 15.5 13 Sudoeste 32 Sudoeste 0 -- -- 57
2021-02-13 13:00:00 14.9 11 Oeste 31 Oeste 0 -- -- 58
2021-02-13 08:00:00 -- -- -- -- -- -- -- -- --
2021-02-13 07:00:00 7.8 21 Oeste 42 Oeste 0 -- -- 85
2021-02-13 06:00:00 8.3 23 Oeste 49 Oeste 0 -- -- 83
2021-02-13 05:00:00 8.7 31 Oeste 48 Oeste 0 -- -- 81
2021-02-13 04:00:00 8.4 22 Oeste 41 Oeste 0 -- -- 84
2021-02-13 03:00:00 9.8 24 Oeste 53 Oeste 0 -- -- 76
2021-02-13 02:00:00 9.8 24 Oeste 46 Oeste 0 -- -- 77
2021-02-13 01:00:00 10.1 28 Oeste 50 Oeste 0 -- -- 76
2021-02-13 00:00:00 10.5 26 Oeste 51 Oeste 0 -- -- 76
2021-02-12 23:00:00 10.5 30 Oeste 58 Oeste 0 -- -- 77
2021-02-12 22:00:00 10.7 35 Oeste 60 Oeste 0 -- -- 78
2021-02-12 21:00:00 10.7 27 Oeste 46 Oeste 0 -- -- 80
2021-02-12 20:00:00 11 20 Oeste 37 Oeste 0.2 -- -- 83
2021-02-12 19:00:00 10.8 18 Oeste 39 Sudoeste 0 -- -- 85
2021-02-12 18:00:00 10.2 21 Oeste 42 Oeste 0.6 -- -- 90
2021-02-12 17:00:00 10.6 22 Oeste 50 Oeste 0.4 -- -- 89
2021-02-12 16:00:00 12.1 25 Oeste 49 Oeste 0 -- -- 78
2021-02-12 15:00:00 13 29 Oeste 54 Noroeste 0 -- -- 67
2021-02-12 14:00:00 12.6 24 Oeste 44 Oeste 0 -- -- 82
2021-02-12 13:00:00 12.3 22 Oeste 42 Oeste 0.6 -- -- 87
2021-02-12 12:00:00 17.4 20 Oeste 36 Oeste 0 -- -- 58
2021-02-12 11:00:00 16.6 5 Sudoeste 11 Oeste 0 -- -- 60
2021-02-12 10:00:00 14 5 Oeste 11 Oeste 0 -- -- 73
2021-02-12 09:00:00 10.7 7 Oeste 12 Sudoeste 0 -- -- 87
2021-02-12 08:00:00 9 3 Noroeste 12 Oeste 0 -- -- 88
2021-02-12 07:00:00 8.4 6 Oeste 11 Oeste 0 -- -- 89
2021-02-12 06:00:00 10.5 3 Oeste 12 Nordeste 0 -- -- 80
2021-02-12 05:00:00 12.9 4 Este 15 Sudoeste 0 -- -- 72
2021-02-12 04:00:00 13.2 9 Oeste 20 Oeste 0 -- -- 71
2021-02-12 03:00:00 12.6 8 Oeste 17 Oeste 0 -- -- 73
2021-02-12 02:00:00 13.2 8 Oeste 19 Noroeste 0 -- -- 72
2021-02-12 01:00:00 12.9 9 Oeste 18 Oeste 0 -- -- 74
2021-02-12 00:00:00 10.1 6 Oeste 13 Oeste 0 -- -- 85
2021-02-11 23:00:00 11 4 Nordeste 14 Oeste 0 -- -- 80
2021-02-11 22:00:00 11.7 8 Oeste 13 Noroeste 0 -- -- 79
2021-02-11 21:00:00 12.7 9 Oeste 16 Oeste 0 -- -- 74
2021-02-11 20:00:00 13.1 10 Oeste 17 Oeste 0 -- -- 72
2021-02-11 19:00:00 13.6 8 Oeste 19 Oeste 0 -- -- 70
2021-02-11 18:00:00 14.9 9 Oeste 26 Sudoeste 0 -- -- 66
2021-02-11 17:00:00 17.1 12 Oeste 27 Sudoeste 0 -- -- 58
2021-02-11 16:00:00 17.7 15 Oeste 32 Sudoeste 0 -- -- 54
2021-02-11 15:00:00 17.4 15 Sudoeste 36 Oeste 0 -- -- 54
2021-02-11 14:00:00 16.6 17 Oeste 32 Oeste 0 -- -- 53
2021-02-11 13:00:00 16.1 15 Oeste 32 Sudoeste 0 -- -- 52
2021-02-11 12:00:00 14.3 18 Oeste 37 Oeste 0 -- -- 56
2021-02-11 11:00:00 13.2 23 Oeste 35 Oeste 0 -- -- 52
2021-02-11 10:00:00 11.6 17 Oeste 39 Oeste 0 -- -- 57
2021-02-11 09:00:00 10.1 24 Oeste 40 Oeste 0 -- -- 60
2021-02-11 08:00:00 7.8 19 Oeste 36 Noroeste 0 -- -- 68
2021-02-11 07:00:00 8.4 21 Oeste 35 Oeste 0 -- -- 66
2021-02-11 06:00:00 8.1 17 Oeste 34 Noroeste 0 -- -- 68
2021-02-11 05:00:00 8.4 21 Noroeste 37 Oeste 0 -- -- 67
2021-02-11 04:00:00 8.6 21 Oeste 38 Oeste 0 -- -- 66
2021-02-11 03:00:00 8.3 18 Oeste 42 Oeste 0 -- -- 67
2021-02-11 02:00:00 9.5 24 Oeste 42 Oeste 0 -- -- 61
2021-02-11 01:00:00 10.4 29 Oeste 53 Oeste 0 -- -- 56
2021-02-11 00:00:00 9.4 21 Oeste 55 Oeste 0 -- -- 59
2021-02-10 23:00:00 10.7 28 Oeste 57 Oeste 0 -- -- 53
2021-02-10 22:00:00 10.8 32 Oeste 57 Oeste 0 -- -- 53
2021-02-10 21:00:00 10.2 27 Noroeste 48 Oeste 0 -- -- 56
2021-02-10 20:00:00 10.1 23 Oeste 40 Oeste 0 -- -- 58
2021-02-10 19:00:00 10.3 22 Oeste 39 Oeste 0 -- -- 61
2021-02-10 18:00:00 11 20 Oeste 42 Oeste 0 -- -- 58
2021-02-10 17:00:00 12.3 19 Oeste 50 Oeste 0 -- -- 55
2021-02-10 16:00:00 12.3 29 Oeste 54 Noroeste 0 -- -- 55
2021-02-10 15:00:00 12.3 24 Oeste 51 Oeste 0 -- -- 60
2021-02-10 14:00:00 12.2 25 Oeste 61 Oeste 0 -- -- 63
2021-02-10 13:00:00 11 32 Oeste 59 Oeste 0 -- -- 67
2021-02-10 12:00:00 8.9 27 Oeste 49 Oeste 0 -- -- 76
2021-02-10 11:00:00 9.9 26 Oeste 49 Oeste 0 -- -- 77
2021-02-10 10:00:00 7.1 9 Oeste 22 Oeste 0 -- -- 91
2021-02-10 09:00:00 6.5 12 Oeste 39 Oeste 1.8 -- -- 93
2021-02-10 08:00:00 6.9 14 Oeste 26 Oeste 1.4 -- -- 91
2021-02-10 07:00:00 7 7 Sudoeste 25 Oeste 0 -- -- 85
2021-02-10 06:00:00 7.4 12 Oeste 27 Noroeste 0 -- -- 83
2021-02-10 05:00:00 7.4 14 Oeste 27 Oeste 0.2 -- -- 84
2021-02-10 04:00:00 6.4 11 Oeste 25 Oeste 0.2 -- -- 90
2021-02-10 03:00:00 7.2 13 Oeste 24 Oeste 0 -- -- 84
2021-02-10 02:00:00 7 11 Oeste 28 Oeste 0 -- -- 83
2021-02-10 01:00:00 7.4 15 Oeste 30 Oeste 0 -- -- 84
2021-02-10 00:00:00 8.4 15 Oeste 27 Oeste 0 -- -- 81
2021-02-09 23:00:00 8.2 12 Oeste 22 Oeste 0 -- -- 87
2021-02-09 22:00:00 8 10 Oeste 22 Oeste 0 -- -- 93
2021-02-09 21:00:00 8.2 12 Oeste 22 Oeste 0 -- -- 96
2021-02-09 20:00:00 8.1 5 Oeste 10 Sudoeste 0.4 -- -- 96
2021-02-09 19:00:00 8.8 6 Sudoeste 12 Oeste 1.8 -- -- 93
2021-02-09 18:00:00 9.6 4 Sur 7 Oeste 0.4 -- -- 90
2021-02-09 17:00:00 10.6 3 Norte 13 Este 0 -- -- 75
2021-02-09 16:00:00 10.9 5 Este 13 Este 0 -- -- 78
2021-02-09 15:00:00 10.9 3 Este 10 Nordeste 0 -- -- 77
2021-02-09 14:00:00 10.8 3 Oeste 8 Sudoeste 0.2 -- -- 81
2021-02-09 13:00:00 11.9 5 Sudeste 13 Este 0 -- -- 65
2021-02-09 12:00:00 12.4 2 Oeste 12 Oeste 0 -- -- 59
2021-02-09 11:00:00 11.4 6 Sudoeste 17 Oeste 0 -- -- 64
2021-02-09 10:00:00 10.6 10 Oeste 19 Oeste 0 -- -- 66
2021-02-09 09:00:00 8.7 9 Oeste 23 Oeste 0 -- -- 73
2021-02-09 08:00:00 7.5 10 Noroeste 23 Oeste 0 -- -- 78
2021-02-09 07:00:00 7.3 11 Oeste 20 Oeste 0 -- -- 78
2021-02-09 06:00:00 7.9 6 Oeste 32 Oeste 0 -- -- 75
2021-02-09 05:00:00 8.8 12 Oeste 52 Oeste 0 -- -- 71
2021-02-09 04:00:00 8.8 26 Oeste 51 Oeste 0 -- -- 70
2021-02-09 03:00:00 8.2 23 Oeste 50 Oeste 0 -- -- 72
2021-02-09 02:00:00 8.1 22 Oeste 48 Oeste 0 -- -- 73
2021-02-09 01:00:00 8.4 26 Oeste 46 Oeste 0 -- -- 72
2021-02-09 00:00:00 9 23 Oeste 44 Oeste 0 -- -- 70
2021-02-08 23:00:00 9.5 22 Oeste 39 Sudoeste 0 -- -- 68
2021-02-08 22:00:00 9.5 19 Oeste 36 Oeste 0 -- -- 69
2021-02-08 21:00:00 9.1 12 Oeste 30 Oeste 0 -- -- 72
2021-02-08 20:00:00 9 11 Oeste 27 Sudoeste 0 -- -- 74
2021-02-08 19:00:00 8.8 9 Oeste 24 Oeste 0 -- -- 81
2021-02-08 18:00:00 10.4 10 Oeste 29 Sudoeste 0 -- -- 73
2021-02-08 17:00:00 11.4 10 Oeste 30 Oeste 0 -- -- 73
2021-02-08 16:00:00 12.9 15 Oeste 37 Oeste 0 -- -- 69
2021-02-08 15:00:00 11.3 17 Oeste 32 Oeste 0 -- -- 78
2021-02-08 14:00:00 8.1 19 Oeste 37 Oeste 0.6 -- -- 89
2021-02-08 13:00:00 8.9 15 Oeste 43 Sudoeste 2 -- -- 89
2021-02-08 12:00:00 7.7 12 Noroeste 28 Oeste 1.2 -- -- 90
2021-02-08 11:00:00 8.2 10 Oeste 19 Oeste 1.8 -- -- 87
2021-02-08 10:00:00 10 11 Oeste 22 Oeste 0 -- -- 68
2021-02-08 09:00:00 8.4 11 Oeste 21 Oeste 0 -- -- 73
2021-02-08 08:00:00 8.5 12 Oeste 30 Oeste 0 -- -- 73
2021-02-08 07:00:00 8.3 12 Oeste 26 Oeste 0 -- -- 75
2021-02-08 06:00:00 7.8 12 Oeste 25 Oeste 0 -- -- 75
2021-02-08 05:00:00 7 14 Oeste 30 Sudoeste 0 -- -- 76
2021-02-08 04:00:00 7.6 15 Oeste 32 Sudoeste 0 -- -- 74
2021-02-08 03:00:00 8 16 Oeste 39 Oeste 0 -- -- 71
2021-02-08 02:00:00 8.1 23 Oeste 46 Oeste 0 -- -- 69
2021-02-08 01:00:00 7.9 18 Oeste 44 Oeste 0 -- -- 66
2021-02-08 00:00:00 7.7 17 Oeste 38 Oeste 0 -- -- 64
2021-02-07 23:00:00 7.7 17 Oeste 30 Oeste 0 -- -- 62
2021-02-07 22:00:00 7.8 15 Oeste 27 Sudoeste 0 -- -- 61
2021-02-07 21:00:00 8.2 15 Oeste 32 Oeste 0 -- -- 58
2021-02-07 20:00:00 8.2 14 Oeste 35 Oeste 0 -- -- 58
2021-02-07 19:00:00 8.3 16 Oeste 34 Oeste 0 -- -- 61
2021-02-07 18:00:00 8.9 12 Oeste 30 Oeste 0 -- -- 62
2021-02-07 17:00:00 9.9 15 Oeste 40 Oeste 0 -- -- 57
2021-02-07 16:00:00 12 18 Oeste 41 Sudoeste 0 -- -- 52
2021-02-07 15:00:00 10.9 18 Oeste 49 Oeste 0 -- -- 57
2021-02-07 14:00:00 11.1 28 Oeste 49 Oeste 0 -- -- 54
2021-02-07 13:00:00 10.2 18 Oeste 58 Oeste 0 -- -- 58
2021-02-07 12:00:00 8.5 36 Oeste 61 Oeste 0 -- -- 63
2021-02-07 11:00:00 7.8 33 Oeste 63 Oeste 0 -- -- 67
2021-02-07 10:00:00 4.7 32 Oeste 58 Oeste 0 -- -- 77
2021-02-07 09:00:00 4.4 35 Oeste 62 Oeste 0 -- -- 78
2021-02-07 08:00:00 4.7 32 Oeste 54 Oeste 0 -- -- 79
2021-02-07 07:00:00 5.2 28 Oeste 51 Oeste 0 -- -- 80
2021-02-07 06:00:00 5.6 28 Oeste 54 Oeste 0 -- -- 81
2021-02-07 05:00:00 5.7 29 Oeste 49 Oeste 0 -- -- 84
2021-02-07 04:00:00 5.9 30 Oeste 58 Oeste 0 -- -- 84
2021-02-07 03:00:00 6.2 28 Oeste 50 Oeste 0 -- -- 85
2021-02-07 02:00:00 6.5 27 Oeste 49 Oeste 0 -- -- 86
2021-02-07 01:00:00 6.9 21 Oeste 47 Sudoeste 0 -- -- 88
2021-02-07 00:00:00 7.3 23 Oeste 49 Oeste 0 -- -- 90
2021-02-06 23:00:00 7.9 23 Oeste 46 Oeste 0 -- -- 91
2021-02-06 22:00:00 9 21 Oeste 35 Oeste 0.2 -- -- 92
2021-02-06 21:00:00 9.8 17 Oeste 32 Noroeste 0.4 -- -- 90
2021-02-06 20:00:00 11.5 19 Oeste 36 Sudoeste 0 -- -- 76
2021-02-06 19:00:00 11.2 6 Oeste 9 Oeste 0 -- -- 83
2021-02-06 18:00:00 12.3 0 Calma 5 Sudeste 0 -- -- 84
2021-02-06 17:00:00 13.4 0 Calma 13 Este 0 -- -- 77
2021-02-06 16:00:00 14 4 Este 18 Oeste 0 -- -- 72
2021-02-06 15:00:00 16.7 8 Oeste 21 Oeste 0 -- -- 51
2021-02-06 14:00:00 17.7 10 Sudoeste 20 Sudoeste 0 -- -- 52
2021-02-06 13:00:00 18 10 Sur 20 Sur 0 -- -- 55
2021-02-06 12:00:00 16.7 8 Sudoeste 21 Oeste 0 -- -- 64
2021-02-06 11:00:00 15.1 7 Sudoeste 17 Oeste 0 -- -- 71
2021-02-06 10:00:00 13.4 6 Oeste 10 Sudoeste 0 -- -- 80
2021-02-06 09:00:00 11.9 4 Nordeste 10 Norte 0 -- -- 83
2021-02-06 08:00:00 11.9 2 Este 15 Sudeste 0 -- -- 79
2021-02-06 07:00:00 11.7 4 Nordeste 19 Sudeste 0 -- -- 76
2021-02-06 06:00:00 12.9 8 Este 20 Este 0 -- -- 70
2021-02-06 05:00:00 12.3 5 Este 10 Este 0 -- -- 70
2021-02-06 04:00:00 12.4 6 Este 13 Este 0 -- -- 68
2021-02-06 03:00:00 12.8 7 Noroeste 13 Este 0 -- -- 67
2021-02-06 02:00:00 12.9 7 Este 15 Este 0 -- -- 66
2021-02-06 01:00:00 12.1 5 Este 15 Sudeste 0 -- -- 70
2021-02-06 00:00:00 10.8 5 Nordeste 9 Este 0 -- -- 71
2021-02-05 23:00:00 8.5 0 Calma 6 Norte 0 -- -- 89
2021-02-05 22:00:00 8.2 0 Calma 7 Nordeste 0 -- -- 95
2021-02-05 21:00:00 8.5 3 Nordeste 6 Nordeste 0 -- -- 97
2021-02-05 20:00:00 9.4 5 Nordeste 12 Norte 0 -- -- 96
2021-02-05 19:00:00 9.6 2 Norte 10 Este 0 -- -- 92
2021-02-05 18:00:00 11.3 5 Este 15 Este 0 -- -- 89
2021-02-05 17:00:00 11.7 8 Este 16 Sudeste 0 -- -- 86
2021-02-05 16:00:00 12.9 9 Sudeste 22 Sudeste 0 -- -- 81
2021-02-05 15:00:00 13.9 9 Este 18 Sudeste 0 -- -- 75
2021-02-05 14:00:00 14.8 9 Sudeste 19 Sudeste 0 -- -- 69
2021-02-05 13:00:00 13.2 9 Sudeste 22 Sudeste 0 -- -- 76
2021-02-05 12:00:00 13.3 13 Sudeste 22 Sudeste 0 -- -- 76
2021-02-05 11:00:00 10.3 6 Sudeste 15 Este 0 -- -- 91
2021-02-05 10:00:00 9.3 7 Este 15 Este 0 -- -- 95
2021-02-05 09:00:00 8.7 4 Nordeste 13 Norte 0 -- -- 98
2021-02-05 08:00:00 8 4 Oeste 11 Sudeste 0 -- -- 97
2021-02-05 07:00:00 8.7 5 Nordeste 12 Este 0 -- -- 98
2021-02-05 06:00:00 8.7 4 Este 9 Sudeste 0 -- -- 98
2021-02-05 05:00:00 8.6 4 Nordeste 10 Sudeste 0 -- -- 98
2021-02-05 04:00:00 8.4 3 Sudoeste 14 Oeste 0 -- -- 97
2021-02-05 03:00:00 8.8 8 Este 14 Norte 0 -- -- 96
2021-02-05 02:00:00 9.2 9 Sur 18 Sur 0 -- -- 95
2021-02-05 01:00:00 9.5 2 Sudeste 8 Sur 0 -- -- 94
2021-02-05 00:00:00 9.6 0 Calma 6 Sudeste 0 -- -- 94
2021-02-04 23:00:00 9.6 2 Norte 5 Sudoeste 0 -- -- 93
2021-02-04 22:00:00 9.8 2 Sur 8 Sudeste 0 -- -- 93
2021-02-04 21:00:00 10 4 Sudeste 10 Sudeste 0 -- -- 94
2021-02-04 20:00:00 10 3 Este 7 Sudeste 0 -- -- 96
2021-02-04 19:00:00 10.2 5 Sudeste 13 Sudeste 0 -- -- 95
2021-02-04 18:00:00 10.9 6 Este 14 Este 0 -- -- 93
2021-02-04 17:00:00 11.8 7 Sudeste 15 Este 0 -- -- 89
2021-02-04 16:00:00 13 7 Este 16 Este 0 -- -- 85
2021-02-04 15:00:00 13.9 8 Este 17 Este 0 -- -- 82
2021-02-04 14:00:00 13.5 8 Sudeste 19 Este 0 -- -- 82
2021-02-04 13:00:00 16.3 10 Este 19 Este 0 -- -- 70
2021-02-04 12:00:00 17.9 8 Este 17 Sudeste 0 -- -- 59
2021-02-04 11:00:00 16.3 6 Sudeste 14 Este 0 -- -- 63
2021-02-04 10:00:00 12.9 3 Nordeste 8 Oeste 0 -- -- 77
2021-02-04 09:00:00 8.9 0 Calma 5 Noroeste 0 -- -- 95
2021-02-04 08:00:00 6.7 4 Noroeste 7 Noroeste 0 -- -- 94
2021-02-04 07:00:00 7.2 0 Calma 10 Oeste 0 -- -- 93
2021-02-04 06:00:00 7.2 4 Noroeste 7 Oeste 0 -- -- 93
2021-02-04 05:00:00 7.7 4 Noroeste 13 Oeste 0 -- -- 91
2021-02-04 04:00:00 7.9 9 Oeste 11 Oeste 0 -- -- 92
2021-02-04 03:00:00 7.7 2 Nordeste 5 Noroeste 0 -- -- 89
2021-02-04 02:00:00 8.8 2 Oeste 6 Oeste 0 -- -- 85
2021-02-04 01:00:00 9.2 6 Oeste 10 Oeste 0 -- -- 84
2021-02-04 00:00:00 9.4 7 Oeste 10 Oeste 0 -- -- 82
2021-02-03 23:00:00 10.2 6 Sudoeste 10 Oeste 0 -- -- 80
2021-02-03 22:00:00 11 3 Noroeste 12 Oeste 0 -- -- 77
2021-02-03 21:00:00 11.4 6 Oeste 10 Oeste 0 -- -- 74
2021-02-03 20:00:00 13.7 0 Calma 24 Noroeste 0 -- -- 65
2021-02-03 19:00:00 15.8 12 Oeste 31 Noroeste 0 -- -- 55
2021-02-03 18:00:00 15.4 13 Noroeste 25 Noroeste 0 -- -- 58
2021-02-03 17:00:00 15.8 12 Oeste 23 Noroeste 0 -- -- 58
2021-02-03 16:00:00 17.2 10 Oeste 26 Oeste 0 -- -- 54
2021-02-03 15:00:00 17.8 14 Oeste 32 Oeste 0 -- -- 50
2021-02-03 14:00:00 17.6 16 Oeste 34 Oeste 0 -- -- 50
2021-02-03 13:00:00 17.7 17 Oeste 31 Oeste 0 -- -- 51
2021-02-03 12:00:00 16.7 14 Oeste 35 Noroeste 0 -- -- 52
2021-02-03 11:00:00 15.1 14 Oeste 37 Noroeste 0 -- -- 55
2021-02-03 10:00:00 13.8 18 Noroeste 34 Oeste 0 -- -- 57
2021-02-03 09:00:00 11.1 13 Oeste 22 Oeste 0 -- -- 69
2021-02-03 08:00:00 11.1 11 Oeste 26 Noroeste 0 -- -- 68
2021-02-03 07:00:00 12.8 17 Oeste 34 Oeste 0 -- -- 63
2021-02-03 06:00:00 13.1 18 Noroeste 39 Noroeste 0 -- -- 63
2021-02-03 05:00:00 13 17 Oeste 31 Oeste 0 -- -- 64
2021-02-03 04:00:00 13.4 10 Oeste 29 Oeste 0 -- -- 62
2021-02-03 03:00:00 12.6 7 Sudoeste 25 Noroeste 0 -- -- 65
2021-02-03 02:00:00 13 11 Sudoeste 24 Oeste 0 -- -- 67
2021-02-03 01:00:00 13.5 14 Noroeste 26 Oeste 0 -- -- 66
2021-02-03 00:00:00 10.3 12 Oeste 15 Oeste 0 -- -- 80
2021-02-02 23:00:00 8.7 7 Oeste 14 Oeste 0 -- -- 85
2021-02-02 22:00:00 10.2 11 Sudoeste 15 Sudoeste 0 -- -- 80
2021-02-02 21:00:00 10 9 Oeste 15 Oeste 0 -- -- 80
2021-02-02 20:00:00 9.5 10 Oeste 13 Oeste 0 -- -- 84
2021-02-02 19:00:00 10.3 2 Nordeste 8 Oeste 0 -- -- 79
2021-02-02 18:00:00 15.6 4 Oeste 20 Oeste 0 -- -- 60
2021-02-02 17:00:00 18.2 13 Oeste 26 Oeste 0 -- -- 53
2021-02-02 16:00:00 19 13 Sudoeste 32 Oeste 0 -- -- 52
2021-02-02 15:00:00 18.9 19 Oeste 32 Oeste 0 -- -- 52
2021-02-02 14:00:00 16.4 15 Oeste 36 Sudoeste 0 -- -- 58
2021-02-02 13:00:00 16.4 16 Oeste -- -- -- -- -- 58
2021-02-02 12:00:00 -- -- -- -- -- -- -- -- --
2021-02-02 11:00:00 15.7 28 Oeste 53 Oeste 0 -- -- 61
2021-02-02 10:00:00 13.9 27 Oeste 54 Oeste 0 -- -- 68
2021-02-02 09:00:00 12.4 31 Oeste 51 Oeste 0 -- -- 72
2021-02-02 08:00:00 11 24 Noroeste 39 Noroeste 0 -- -- 77
2021-02-02 07:00:00 11 23 Oeste 37 Oeste 0 -- -- 75
2021-02-02 06:00:00 11.7 14 Oeste 41 Oeste 0 -- -- 71
2021-02-02 05:00:00 12.5 21 Oeste 45 Oeste 0 -- -- 68
2021-02-02 04:00:00 12.4 27 Oeste 45 Oeste 0 -- -- 69
2021-02-02 03:00:00 12.5 25 Oeste 49 Oeste 0 -- -- 68
2021-02-02 02:00:00 12.5 26 Sudoeste 46 Sudoeste 0 -- -- 71
2021-02-02 01:00:00 13.2 22 Sudoeste 43 Sudoeste 0 -- -- 67
2021-02-02 00:00:00 13.8 21 Oeste 50 Sudoeste 0 -- -- 63
2021-02-01 23:00:00 14.2 28 Oeste 60 Oeste 0 -- -- 60
2021-02-01 22:00:00 14.5 23 Oeste 56 Oeste 0 -- -- 60
2021-02-01 21:00:00 14.9 29 Oeste 82 Noroeste 0 -- -- 59
2021-02-01 20:00:00 15.4 45 Oeste 81 Oeste 0 -- -- 54
2021-02-01 19:00:00 14.9 39 Oeste 92 Oeste 0 -- -- 58
2021-02-01 18:00:00 15 35 Oeste 66 Oeste 0 -- -- 55
2021-02-01 17:00:00 16.1 34 Oeste 73 Oeste 0 -- -- 50
2021-02-01 16:00:00 17.2 34 Oeste 70 Oeste 0 -- -- 44
2021-02-01 15:00:00 17.1 35 Oeste 69 Noroeste 0 -- -- 42
2021-02-01 14:00:00 16.8 31 Oeste 66 Oeste 0 -- -- 43
2021-02-01 13:00:00 16.1 27 Oeste 79 Oeste 0 -- -- 45
2021-02-01 12:00:00 15.6 30 Oeste 70 Oeste 0 -- -- 48
2021-02-01 11:00:00 14.5 22 Oeste 50 Oeste 0 -- -- 52
2021-02-01 10:00:00 12.7 18 Oeste 47 Oeste 0 -- -- 58
2021-02-01 09:00:00 11.3 18 Oeste 37 Oeste 0 -- -- 63
2021-02-01 08:00:00 11.1 17 Oeste 58 Oeste 0 -- -- 63
2021-02-01 07:00:00 11.9 26 Oeste 82 Oeste 0 -- -- 60
2021-02-01 06:00:00 12.5 38 Oeste 80 Oeste 0 -- -- 59
2021-02-01 05:00:00 13.1 37 Oeste 70 Oeste 0 -- -- 57
2021-02-01 04:00:00 13.4 33 Oeste 69 Oeste 0 -- -- 56
2021-02-01 03:00:00 13.8 32 Oeste 69 Oeste 0 -- -- 58
2021-02-01 02:00:00 13.7 22 Oeste 55 Sudoeste 0 -- -- 60
2021-02-01 01:00:00 13.5 23 Oeste 43 Sudoeste 0 -- -- 63
2021-02-01 00:00:00 13.4 19 Oeste 37 Sudoeste 0 -- -- 66
2021-01-31 23:00:00 13.1 19 Oeste 41 Oeste 0 -- -- 69
2021-01-31 22:00:00 13.6 21 Oeste 59 Oeste 0 -- -- 66
2021-01-31 21:00:00 13.9 23 Oeste 50 Sudoeste 0 -- -- 64
2021-01-31 20:00:00 13.9 26 Sudoeste 55 Oeste 0 -- -- 64
2021-01-31 19:00:00 14.2 26 Oeste 59 Sudoeste 0 -- -- 63
2021-01-31 18:00:00 14.2 24 Oeste 54 Oeste 0 -- -- 60
2021-01-31 17:00:00 15.6 20 Oeste 54 Oeste 0 -- -- 56
2021-01-31 16:00:00 15.5 25 Oeste 64 Oeste 0 -- -- 53
2021-01-31 15:00:00 14.9 23 Oeste 57 Oeste 0 -- -- 52
2021-01-31 14:00:00 14.9 21 Oeste 60 Oeste 0 -- -- 50
2021-01-31 13:00:00 14.5 30 Oeste 65 Sudoeste 0 -- -- 50
2021-01-31 12:00:00 13.7 23 Oeste 67 Oeste 0 -- -- 54
2021-01-31 11:00:00 11.7 27 Oeste 67 Sudoeste 0 -- -- 59
2021-01-31 10:00:00 11 31 Oeste 72 Oeste 0 -- -- 60
2021-01-31 09:00:00 9.6 31 Oeste 66 Noroeste 0 -- -- 64
2021-01-31 08:00:00 8.7 30 Oeste 67 Sudoeste 0 -- -- 65
2021-01-31 07:00:00 9 32 Oeste 67 Oeste 0 -- -- 64
2021-01-31 06:00:00 9.1 27 Oeste 60 Oeste 0 -- -- 63
2021-01-31 05:00:00 8.6 24 Oeste 55 Oeste 0 -- -- 66
2021-01-31 04:00:00 8.6 26 Oeste 59 Sudoeste 0 -- -- 67
2021-01-31 03:00:00 8.6 25 Oeste 50 Sudoeste 0 -- -- 67
2021-01-31 02:00:00 8.6 17 Oeste 38 Sudoeste 0 -- -- 68
2021-01-31 01:00:00 8.9 18 Oeste 41 Sudoeste 0 -- -- 66
2021-01-31 00:00:00 9.2 17 Oeste 55 Oeste 0 -- -- 63